Flight Track Log - Related Links

Times and Time Zones

All times are in EDT time to prevent confusion due to time zone crossing. See the N2834L flight status page for this flight to view local times or setup timezone preferences in your user account.

Time Position Orientation Groundspeed Altitude Reporting Facility
EDT Latitude Longitude Course Direction KTS MPH feet Rate Location/Type
Fri 04:14:07 PM 42.9925 -73.3853 167° South 84 97 3,500  Level Boston Center
Fri 04:15:01 PM 42.9717 -73.3794 168° South 88 101 3,600 104 Climbing Boston Center
Fri 04:16:02 PM 42.9447 -73.3789 179° South 90 104 3,700  Climbing Boston Center
Fri 04:17:03 PM 42.9217 -73.3728 169° South 90 104 3,600 -99 Descending Boston Center
Fri 04:18:03 PM 42.8928 -73.3667 171° South 101 116 3,500  Descending Boston Center
Fri 04:19:00 PM 42.7318 -73.4248 167° South  Level Estimated
Fri 04:19:04 PM 42.8697 -73.3581 165° South 91 105 3,600  Level Boston Center
Fri 04:20:04 PM 42.8511 -73.3350 138° Southeast 88 101 3,900 198 Climbing Boston Center
Fri 04:21:05 PM 42.8328 -73.3064 131° Southeast 94 108 4,000 98 Climbing Boston Center
Fri 04:22:06 PM 42.8122 -73.2750 132° Southeast 102 117 4,100  Climbing Boston Center
Fri 04:23:06 PM 42.7914 -73.2464 135° Southeast 108 124 4,000 -50 Descending Boston Center
Fri 04:24:07 PM 42.7644 -73.2375 166° South 105 121 4,000  Level Boston Center
Fri 04:25:08 PM 42.7372 -73.2344 175° South 100 115 4,000  Level Boston Center
Fri 04:26:08 PM 42.7083 -73.2283 171° South 101 116 4,000 -50 Level Boston Center
Fri 04:27:09 PM 42.6811 -73.2281 180° South 102 117 3,900 -47 Descending Boston Center
Fri 04:28:16 PM 42.6478 -73.2247 176° South 100 115 3,900 47 Level Boston Center
Fri 04:29:16 PM 42.6228 -73.2131 161° South 97 112 4,000 99 Climbing Boston Center
Fri 04:30:17 PM 42.5958 -73.2100 175° South 99 114 4,100  Climbing Boston Center
Fri 04:31:18 PM 42.5689 -73.1956 158° South 103 119 4,000 -99 Descending Boston Center
Fri 04:32:18 PM 42.5417 -73.1811 159° South 102 117 3,900  Descending Boston Center
Fri 04:33:19 PM 42.5169 -73.1583 146° Southeast 102 117 4,000 49 Climbing Boston Center
Fri 04:34:20 PM 42.4919 -73.1383 149° Southeast 103 119 4,000  Level Boston Center
Fri 04:35:33 PM 42.4567 -73.1239 163° South 100 115 4,000 -45 Level Boston Center
Fri 04:36:33 PM 42.4317 -73.1153 166° South 98 113 3,900 -52 Descending Boston Center
Fri 04:37:28 PM 42.4089 -73.1122 174° South 98 113 3,900 52 Level Boston Center
Fri 04:38:28 PM 42.3797 -73.1061 171° South 96 110 4,000  Climbing Boston Center
Fri 04:39:29 PM 42.3547 -73.1058 180° South 94 108 3,900 -98 Descending Boston Center
Fri 04:41:00 PM 42.3106 -73.0988 173° South  Level Estimated
Fri 04:48:00 PM 42.1067 -73.0664 173° South  Level Estimated
Fri 04:49:00 PM 42.0776 -73.0618 173° South  Level Estimated
Fri 04:50:00 PM 42.0485 -73.0572 173° South  Level Estimated
Fri 04:51:00 PM 42.0194 -73.0526 173° South  Level Estimated
Fri 04:52:00 PM 41.9902 -73.0480 173° South  Level Estimated
Fri 04:53:00 PM 41.9611 -73.0434 173° South  Level Estimated
Fri 04:54:00 PM 41.9320 -73.0388 173° South  Level Estimated
Fri 04:55:00 PM 41.9029 -73.0342 173° South  Level Estimated
Fri 04:56:00 PM 41.8738 -73.0296 173° South  Level Estimated
Fri 04:57:00 PM 41.8446 -73.0250 173° South  Level Estimated
Fri 04:58:00 PM 41.8155 -73.0205 173° South  Level Estimated
Fri 04:59:00 PM 41.7864 -73.0159 173° South  Level Estimated
Fri 05:00:00 PM 41.7573 -73.0113 173° South  Level Estimated
Fri 05:01:00 PM 41.7282 -73.0068 173° South  Level Estimated
Fri 05:02:00 PM 41.6990 -73.0022 173° South  Level Estimated
Fri 05:03:00 PM 41.6699 -72.9977 173° South  Level Estimated
Fri 05:04:00 PM 41.6408 -72.9931 173° South  Level Estimated
Fri 05:05:00 PM 41.6117 -72.9886 173° South  Level Estimated
Fri 05:06:00 PM 41.5826 -72.9840 173° South  Level Estimated
Fri 05:07:00 PM 41.5534 -72.9795 173° South  Level Estimated
Fri 05:08:00 PM 41.5243 -72.9750 173° South  Level Estimated
Fri 05:09:00 PM 41.4952 -72.9704 173° South  Level Estimated
Fri 05:10:00 PM 41.4661 -72.9659 173° South  Level Estimated
Fri 05:11:00 PM 41.4369 -72.9614 173° South  Level Estimated
Fri 05:12:00 PM 41.4078 -72.9569 173° South  Level Estimated
Fri 05:13:00 PM 41.3787 -72.9524 173° South  Level Estimated
Fri 05:14:00 PM 41.3495 -72.9479 173° South  Level Estimated
Fri 05:15:00 PM 41.3204 -72.9434 173° South  Level Estimated
Fri 05:16:00 PM 41.2913 -72.9389 173° South  Level Estimated
Fri 05:17:00 PM 41.2621 -72.9344 173° South  Level Estimated
Fri 05:18:00 PM 41.2330 -72.9299 173° South  Level Estimated
Fri 05:19:00 PM 41.2039 -72.9254 173° South  Level Estimated
Fri 05:20:00 PM 41.1748 -72.9209 173° South  Level Estimated
Fri 05:21:00 PM 41.1456 -72.9164 173° South  Level Estimated
Fri 05:22:00 PM 41.1165 -72.9119 173° South  Level Estimated
Fri 05:23:00 PM 41.0874 -72.9075 173° South  Level Estimated
Fri 05:24:00 PM 41.0582 -72.9030 173° South  Level Estimated
Fri 05:25:00 PM 41.0291 -72.8986 173° South  Level Estimated
Fri 05:26:00 PM 41.0000 -72.8941 173° South  Level Estimated
Fri 05:27:00 PM 40.9709 -72.8896 173° South  Level Estimated
Fri 05:28:00 PM 40.9417 -72.8852 173° South  Level Estimated
Fri 05:29:00 PM 40.9126 -72.8807 173° South  Level Estimated
Fri 05:30:00 PM 40.8835 -72.8763 173° South  Level Estimated
Fri 05:31:00 PM 40.8543 -72.8718 173° South  Level Estimated
Fri 05:32:00 PM 40.8252 -72.8674 173° South  Level Estimated
Fri 05:33:00 PM 40.8219 -72.8669 173° South  Level Estimated
Fri 05:34:00 PM 40.8219 -72.8669 30° Northeast  Level Estimated
Fri 05:35:00 PM 40.8219 -72.8669 30° Northeast  Level Estimated
Fri 05:36:00 PM 40.8219 -72.8669 30° Northeast  Level Estimated
Fri 05:37:00 PM 40.8219 -72.8669 30° Northeast  Level Estimated
Fri 05:38:00 PM 40.8219 -72.8669 30° Northeast  Level Estimated
Fri 05:39:00 PM 40.8219 -72.8669 30° Northeast  Level Estimated
Fri 05:40:00 PM 40.8219 -72.8669 30° Northeast  Level Estimated
Fri 05:41:00 PM 40.8219 -72.8669 30° Northeast  Level Estimated
Fri 05:42:00 PM 40.8219 -72.8669 30° Northeast  Level Estimated
Fri 05:43:00 PM 40.8219 -72.8669 30° Northeast  Level Estimated
Fri 05:44:00 PM 40.8219 -72.8669 30° Northeast  Level Estimated
Fri 05:45:00 PM 40.8219 -72.8669 30° Northeast  Level Estimated
Fri 05:46:00 PM 40.8219 -72.8669 30° Northeast  Level Estimated
Fri 05:47:00 PM 40.8219 -72.8669 30° Northeast  Level Estimated
Fri 05:48:00 PM 40.8219 -72.8669 30° Northeast  Level Estimated
Fri 05:49:00 PM 40.8219 -72.8669 30° Northeast  Level Estimated
Fri 05:50:00 PM 40.8219 -72.8669 30° Northeast  Level Estimated
Fri 05:51:00 PM 40.8219 -72.8669 30° Northeast  Level Estimated
Fri 05:52:00 PM 40.8219 -72.8669 30° Northeast  Level Estimated
Fri 05:53:00 PM 40.8219 -72.8669 30° Northeast  Level Estimated
Fri 05:54:00 PM 40.8219 -72.8669 30° Northeast  Level Estimated
Fri 05:55:00 PM 40.8219 -72.8669 30° Northeast  Level Estimated
Fri 05:56:00 PM 40.8219 -72.8669 30° Northeast  Level Estimated
Fri 05:57:00 PM 40.8219 -72.8669 30° Northeast  Level Estimated
Fri 05:58:00 PM 40.8219 -72.8669 30° Northeast  Level Estimated
Fri 05:59:00 PM 40.8219 -72.8669 30° Northeast  Level Estimated
Fri 06:00:00 PM 40.8219 -72.8669 30° Northeast  Level Estimated
Fri 06:01:00 PM 40.8219 -72.8669 30° Northeast  Level Estimated
Fri 06:02:00 PM 40.8219 -72.8669 30° Northeast  Level Estimated
Fri 06:03:00 PM 40.8219 -72.8669 30° Northeast  Level Estimated
Fri 06:04:00 PM 40.8219 -72.8669 30° Northeast  Level Estimated
Fri 06:05:00 PM 40.8219 -72.8669 30° Northeast  Level Estimated
Fri 06:06:00 PM 40.8219 -72.8669 30° Northeast  Level Estimated
Fri 06:07:00 PM 40.8219 -72.8669 30° Northeast  Level Estimated
Fri 06:08:00 PM 40.8219 -72.8669 30° Northeast  Level Estimated
Fri 06:09:00 PM 40.8219 -72.8669 30° Northeast  Level Estimated
Fri 06:10:00 PM 40.8219 -72.8669 30° Northeast  Level Estimated
Fri 06:11:00 PM 40.8219 -72.8669 30° Northeast  Level Estimated
Fri 06:12:00 PM 40.8219 -72.8669 30° Northeast  Level Estimated
Fri 06:13:00 PM 40.8219 -72.8669 30° Northeast  Level Estimated
Fri 06:14:00 PM 40.8219 -72.8669 30° Northeast  Level Estimated
Fri 06:15:00 PM 40.8219 -72.8669 30° Northeast  Level Estimated
Fri 06:16:00 PM 40.8219 -72.8669 30° Northeast  Level Estimated
Fri 06:17:00 PM 40.8219 -72.8669 30° Northeast  Level Estimated
Fri 06:18:00 PM 40.8219 -72.8669 30° Northeast  Level Estimated
Fri 06:19:00 PM 40.8219 -72.8669 30° Northeast  Level Estimated
Fri 06:20:00 PM 40.8219 -72.8669 30° Northeast  Level Estimated
Fri 06:21:00 PM 40.8219 -72.8669 30° Northeast  Level Estimated
Fri 06:22:00 PM 40.8219 -72.8669 30° Northeast  Level Estimated
Fri 06:23:00 PM 40.8219 -72.8669 30° Northeast  Level Estimated
Fri 06:24:00 PM 40.8219 -72.8669 30° Northeast  Level Estimated

Login

Don't have an account? Register now (free) for customized features, flight alerts, and more!